Aeroporto :
LOGIN :

Iscrizione | Disclaimer

   EN    FR    IT 

 










Sommario :    VFR   VFR Marginale   IFR   IFR Intensivo   IFR Molto Intensivo
Visibilità : 
Base nubi : 
>= 8 km
>= 3000ft
5 / 8 km
1000 / 3000 ft
1500m / 5 km
500 / 1000 ft
800 / 1500m
200 / 500 ft
< 800m
< 200 ft
Simboli :   Temporali  Nebbia  Neve Forte  Precipitazioni Forti  Vento > 20 kt
SIGMETs :   Varie  Temporali  Ghiacco  Turbolenza  Onda orograficha  Ceneri Vulcaniche






- Altitudine del aeroporto : 219 ft
- Codice IATA : DNR


LFRD - Dinard

ULTIMO METAR :
  • 181730Z AUTO 36010KT 9999 OVC027 17/14 Q1013 NOSIG

METARs OBSOLETI :
  • 181700Z AUTO 35011KT 9999 OVC024 17/13 Q1013 TEMPO 3000 SHRA BKN014 BKN030CB
  • 181630Z AUTO 35011KT 310V010 9999 BKN022 OVC084 17/13 Q1013 TEMPO 3000 SHRA BKN014 BKN030CB
  • 181600Z AUTO 34011KT CAVOK 18/13 Q1013 TEMPO 3000 SHRA BKN014 BKN030CB
  • 181530Z AUTO 34010KT CAVOK 18/13 Q1013 TEMPO 3000 SHRA BKN014 BKN030CB
  • 181500Z AUTO 34010KT 9999 FEW016 OVC082 18/14 Q1013 TEMPO 3000 SHRA BKN014 BKN030CB
  • 181430Z AUTO 01008KT 320V040 9999 BKN016 OVC100 19/15 Q1013 TEMPO 3000 SHRA BKN014 BKN030CB
  • 181400Z AUTO 01009KT 9999 SCT017 OVC096 19/15 Q1013 TEMPO 3000 SHRA BKN014 BKN030CB
  • 181330Z AUTO 02008KT 330V060 9999 BKN016 OVC092 20/15 Q1013 TEMPO 3000 SHRA BKN014 BKN030CB

TAF TAF LFRD
Valido dal 18 a 18 ore il 19 a 18 ore UTC


181700Z 1818/1918 36010KT 9999 BKN025
TEMPO 1905/1908 BKN010
BECMG 1908/1910 06015G25KT
TEMPO 1912/1918 4000 SHRA SCT030CB
PROB30
TEMPO 1914/1917 2000 TSRA BKN010 BKN025CB
ATIS : +33 2 99 16 81 50



MetMap, La meteo Aeronautica in un colpo d'occhio ! - Copyright ORBIFLY Dicembre 2007 - Disclaimer

ORBIFLY MET'MAP TEAM :

Programmazione e sviluppo : Alexandra Zaïnal
Concezione : Baudouin d'Aumeries
Supporto tecnico e logistico : Manuel Goepfert
Aiuto : Marc-Olivier Méhu
Aiuto per la traduzione : Arnaldo La Scala




FONTI E CREDITI :

   NOAA